sensor_id;sensor_type;location;lat;lon;timestamp;P1;durP1;ratioP1;P2;durP2;ratioP2
19971;SDS011;10147;16.402;102.848;2022-10-23T00:00:20;36.50;;;26.58;;
19971;SDS011;10147;16.402;102.848;2022-10-23T00:02:51;35.40;;;25.95;;
19971;SDS011;10147;16.402;102.848;2022-10-23T00:05:22;36.00;;;32.17;;
19971;SDS011;10147;16.402;102.848;2022-10-23T00:07:53;33.00;;;25.38;;
19971;SDS011;10147;16.402;102.848;2022-10-23T00:10:24;33.22;;;25.75;;
19971;SDS011;10147;16.402;102.848;2022-10-23T00:12:54;32.95;;;25.15;;
19971;SDS011;10147;16.402;102.848;2022-10-23T00:15:24;28.98;;;24.00;;
19971;SDS011;10147;16.402;102.848;2022-10-23T00:17:55;32.20;;;23.52;;
19971;SDS011;10147;16.402;102.848;2022-10-23T00:20:26;29.35;;;23.15;;
19971;SDS011;10147;16.402;102.848;2022-10-23T00:22:56;32.95;;;24.77;;
19971;SDS011;10147;16.402;102.848;2022-10-23T00:25:27;27.63;;;22.88;;
19971;SDS011;10147;16.402;102.848;2022-10-23T00:27:58;28.58;;;23.05;;
19971;SDS011;10147;16.402;102.848;2022-10-23T00:30:28;30.15;;;24.83;;
19971;SDS011;10147;16.402;102.848;2022-10-23T00:32:59;28.17;;;24.50;;
19971;SDS011;10147;16.402;102.848;2022-10-23T00:35:29;32.70;;;24.00;;
19971;SDS011;10147;16.402;102.848;2022-10-23T00:38:00;32.63;;;26.63;;
19971;SDS011;10147;16.402;102.848;2022-10-23T00:40:30;30.73;;;25.85;;
19971;SDS011;10147;16.402;102.848;2022-10-23T00:43:01;35.20;;;27.40;;
19971;SDS011;10147;16.402;102.848;2022-10-23T00:45:32;32.97;;;26.98;;
19971;SDS011;10147;16.402;102.848;2022-10-23T00:48:03;32.28;;;25.15;;
19971;SDS011;10147;16.402;102.848;2022-10-23T00:50:34;33.20;;;25.63;;
19971;SDS011;10147;16.402;102.848;2022-10-23T00:53:04;32.28;;;26.85;;
19971;SDS011;10147;16.402;102.848;2022-10-23T00:55:36;33.50;;;30.30;;
19971;SDS011;10147;16.402;102.848;2022-10-23T00:58:06;27.48;;;24.40;;
19971;SDS011;10147;16.402;102.848;2022-10-23T01:00:41;30.15;;;23.23;;
19971;SDS011;10147;16.402;102.848;2022-10-23T01:03:12;24.85;;;22.25;;
19971;SDS011;10147;16.402;102.848;2022-10-23T01:06:03;27.15;;;22.27;;
19971;SDS011;10147;16.402;102.848;2022-10-23T01:08:41;26.98;;;22.02;;
19971;SDS011;10147;16.402;102.848;2022-10-23T01:11:19;31.45;;;21.23;;
19971;SDS011;10147;16.402;102.848;2022-10-23T01:14:00;28.92;;;22.00;;
19971;SDS011;10147;16.402;102.848;2022-10-23T01:16:35;27.13;;;22.27;;
19971;SDS011;10147;16.402;102.848;2022-10-23T01:19:33;29.60;;;23.60;;
19971;SDS011;10147;16.402;102.848;2022-10-23T01:25:11;28.58;;;22.45;;
19971;SDS011;10147;16.402;102.848;2022-10-23T01:27:38;25.80;;;21.45;;
19971;SDS011;10147;16.402;102.848;2022-10-23T01:30:13;31.67;;;24.23;;
19971;SDS011;10147;16.402;102.848;2022-10-23T01:32:53;29.15;;;24.23;;
19971;SDS011;10147;16.402;102.848;2022-10-23T01:35:26;36.25;;;32.78;;
19971;SDS011;10147;16.402;102.848;2022-10-23T01:38:08;34.83;;;31.42;;
19971;SDS011;10147;16.402;102.848;2022-10-23T01:40:59;28.60;;;20.80;;
19971;SDS011;10147;16.402;102.848;2022-10-23T01:43:32;27.33;;;20.33;;
19971;SDS011;10147;16.402;102.848;2022-10-23T01:46:06;26.08;;;23.05;;
19971;SDS011;10147;16.402;102.848;2022-10-23T01:48:38;27.08;;;23.25;;
19971;SDS011;10147;16.402;102.848;2022-10-23T01:51:11;31.20;;;24.83;;
19971;SDS011;10147;16.402;102.848;2022-10-23T01:53:43;25.35;;;22.33;;
19971;SDS011;10147;16.402;102.848;2022-10-23T01:56:16;24.25;;;18.17;;
19971;SDS011;10147;16.402;102.848;2022-10-23T01:58:48;20.88;;;18.52;;
19971;SDS011;10147;16.402;102.848;2022-10-23T02:01:21;26.63;;;18.00;;
19971;SDS011;10147;16.402;102.848;2022-10-23T02:03:53;25.58;;;18.35;;
19971;SDS011;10147;16.402;102.848;2022-10-23T02:06:25;21.33;;;17.35;;
19971;SDS011;10147;16.402;102.848;2022-10-23T02:08:56;24.75;;;17.83;;
19971;SDS011;10147;16.402;102.848;2022-10-23T02:11:26;22.30;;;17.23;;
19971;SDS011;10147;16.402;102.848;2022-10-23T02:14:07;24.75;;;17.58;;
19971;SDS011;10147;16.402;102.848;2022-10-23T02:16:45;23.05;;;17.48;;
19971;SDS011;10147;16.402;102.848;2022-10-23T02:19:30;31.58;;;25.73;;
19971;SDS011;10147;16.402;102.848;2022-10-23T02:25:17;19.80;;;16.85;;
19971;SDS011;10147;16.402;102.848;2022-10-23T02:27:51;32.13;;;28.40;;
19971;SDS011;10147;16.402;102.848;2022-10-23T02:30:28;23.88;;;18.13;;
19971;SDS011;10147;16.402;102.848;2022-10-23T02:33:07;24.58;;;17.02;;
19971;SDS011;10147;16.402;102.848;2022-10-23T02:35:40;23.48;;;17.23;;
19971;SDS011;10147;16.402;102.848;2022-10-23T02:44:02;20.45;;;17.30;;
19971;SDS011;10147;16.402;102.848;2022-10-23T02:52:31;20.55;;;18.17;;
19971;SDS011;10147;16.402;102.848;2022-10-23T02:57:54;23.67;;;18.65;;
19971;SDS011;10147;16.402;102.848;2022-10-23T03:00:25;22.25;;;17.48;;
19971;SDS011;10147;16.402;102.848;2022-10-23T03:03:05;24.60;;;18.08;;
19971;SDS011;10147;16.402;102.848;2022-10-23T03:05:40;22.05;;;16.77;;
19971;SDS011;10147;16.402;102.848;2022-10-23T03:08:13;21.63;;;17.95;;
19971;SDS011;10147;16.402;102.848;2022-10-23T03:10:44;19.55;;;16.90;;
19971;SDS011;10147;16.402;102.848;2022-10-23T03:13:22;24.95;;;18.58;;
19971;SDS011;10147;16.402;102.848;2022-10-23T03:15:52;27.65;;;24.17;;
19971;SDS011;10147;16.402;102.848;2022-10-23T03:18:25;26.45;;;23.75;;
19971;SDS011;10147;16.402;102.848;2022-10-23T03:20:58;27.95;;;25.00;;
19971;SDS011;10147;16.402;102.848;2022-10-23T03:23:32;22.30;;;18.75;;
19971;SDS011;10147;16.402;102.848;2022-10-23T03:26:03;23.67;;;18.85;;
19971;SDS011;10147;16.402;102.848;2022-10-23T03:28:39;19.73;;;17.63;;
19971;SDS011;10147;16.402;102.848;2022-10-23T03:31:09;20.55;;;18.35;;
19971;SDS011;10147;16.402;102.848;2022-10-23T03:33:40;19.58;;;16.40;;
19971;SDS011;10147;16.402;102.848;2022-10-23T03:36:11;18.77;;;15.50;;
19971;SDS011;10147;16.402;102.848;2022-10-23T03:38:43;19.58;;;16.27;;
19971;SDS011;10147;16.402;102.848;2022-10-23T03:41:13;18.15;;;15.52;;
19971;SDS011;10147;16.402;102.848;2022-10-23T03:43:44;20.70;;;15.50;;
19971;SDS011;10147;16.402;102.848;2022-10-23T03:46:15;21.75;;;18.98;;
19971;SDS011;10147;16.402;102.848;2022-10-23T03:48:49;21.85;;;16.85;;
19971;SDS011;10147;16.402;102.848;2022-10-23T03:51:19;18.55;;;16.63;;
19971;SDS011;10147;16.402;102.848;2022-10-23T03:53:50;19.52;;;17.25;;
19971;SDS011;10147;16.402;102.848;2022-10-23T03:56:20;24.33;;;17.08;;
19971;SDS011;10147;16.402;102.848;2022-10-23T03:58:51;21.50;;;17.38;;
19971;SDS011;10147;16.402;102.848;2022-10-23T04:01:24;21.55;;;17.50;;
19971;SDS011;10147;16.402;102.848;2022-10-23T04:03:55;18.15;;;16.25;;
19971;SDS011;10147;16.402;102.848;2022-10-23T04:06:26;18.45;;;16.50;;
19971;SDS011;10147;16.402;102.848;2022-10-23T04:08:58;33.83;;;30.15;;
19971;SDS011;10147;16.402;102.848;2022-10-23T04:11:28;32.63;;;29.52;;
19971;SDS011;10147;16.402;102.848;2022-10-23T04:13:59;29.77;;;26.88;;
19971;SDS011;10147;16.402;102.848;2022-10-23T04:16:29;22.83;;;17.20;;
19971;SDS011;10147;16.402;102.848;2022-10-23T04:19:00;20.08;;;16.92;;
19971;SDS011;10147;16.402;102.848;2022-10-23T04:21:30;19.00;;;16.30;;
19971;SDS011;10147;16.402;102.848;2022-10-23T04:24:01;28.67;;;21.65;;
19971;SDS011;10147;16.402;102.848;2022-10-23T04:26:31;20.25;;;17.25;;
19971;SDS011;10147;16.402;102.848;2022-10-23T04:29:02;19.02;;;17.02;;
19971;SDS011;10147;16.402;102.848;2022-10-23T04:31:32;20.23;;;17.13;;
19971;SDS011;10147;16.402;102.848;2022-10-23T04:34:04;19.08;;;17.17;;
19971;SDS011;10147;16.402;102.848;2022-10-23T04:36:35;22.83;;;18.10;;
19971;SDS011;10147;16.402;102.848;2022-10-23T04:39:09;18.98;;;16.75;;
19971;SDS011;10147;16.402;102.848;2022-10-23T04:41:40;20.15;;;18.05;;
19971;SDS011;10147;16.402;102.848;2022-10-23T04:44:11;22.95;;;17.63;;
19971;SDS011;10147;16.402;102.848;2022-10-23T04:46:41;20.83;;;16.67;;
19971;SDS011;10147;16.402;102.848;2022-10-23T04:49:12;23.35;;;17.67;;
19971;SDS011;10147;16.402;102.848;2022-10-23T04:52:02;20.20;;;16.45;;
19971;SDS011;10147;16.402;102.848;2022-10-23T04:54:52;17.98;;;16.08;;
19971;SDS011;10147;16.402;102.848;2022-10-23T04:57:38;18.63;;;16.63;;
19971;SDS011;10147;16.402;102.848;2022-10-23T05:00:11;20.58;;;18.50;;
19971;SDS011;10147;16.402;102.848;2022-10-23T05:02:54;18.10;;;15.80;;
19971;SDS011;10147;16.402;102.848;2022-10-23T05:05:30;19.67;;;17.42;;
19971;SDS011;10147;16.402;102.848;2022-10-23T05:08:06;24.10;;;17.70;;
19971;SDS011;10147;16.402;102.848;2022-10-23T05:10:52;21.30;;;17.50;;
19971;SDS011;10147;16.402;102.848;2022-10-23T05:13:22;25.35;;;22.70;;
19971;SDS011;10147;16.402;102.848;2022-10-23T05:15:53;25.02;;;22.45;;
19971;SDS011;10147;16.402;102.848;2022-10-23T05:18:25;27.80;;;23.67;;
19971;SDS011;10147;16.402;102.848;2022-10-23T05:20:57;21.67;;;16.17;;
19971;SDS011;10147;16.402;102.848;2022-10-23T05:23:28;22.48;;;17.17;;
19971;SDS011;10147;16.402;102.848;2022-10-23T05:26:01;20.63;;;18.13;;
19971;SDS011;10147;16.402;102.848;2022-10-23T05:28:34;20.85;;;17.58;;
19971;SDS011;10147;16.402;102.848;2022-10-23T05:31:07;21.30;;;17.75;;
19971;SDS011;10147;16.402;102.848;2022-10-23T05:33:40;20.48;;;17.95;;
19971;SDS011;10147;16.402;102.848;2022-10-23T05:36:11;21.55;;;17.98;;
19971;SDS011;10147;16.402;102.848;2022-10-23T05:38:44;22.40;;;17.75;;
19971;SDS011;10147;16.402;102.848;2022-10-23T05:41:17;23.70;;;17.38;;
19971;SDS011;10147;16.402;102.848;2022-10-23T05:43:47;24.02;;;18.42;;
19971;SDS011;10147;16.402;102.848;2022-10-23T05:46:41;21.65;;;17.33;;
19971;SDS011;10147;16.402;102.848;2022-10-23T05:49:17;21.40;;;17.23;;
19971;SDS011;10147;16.402;102.848;2022-10-23T05:52:09;19.65;;;17.33;;
19971;SDS011;10147;16.402;102.848;2022-10-23T05:54:50;22.05;;;16.67;;
19971;SDS011;10147;16.402;102.848;2022-10-23T05:57:36;18.13;;;16.23;;
19971;SDS011;10147;16.402;102.848;2022-10-23T06:00:09;19.85;;;17.42;;
19971;SDS011;10147;16.402;102.848;2022-10-23T06:02:40;21.30;;;18.13;;
19971;SDS011;10147;16.402;102.848;2022-10-23T06:05:24;20.17;;;16.73;;
19971;SDS011;10147;16.402;102.848;2022-10-23T06:08:14;25.33;;;18.25;;
19971;SDS011;10147;16.402;102.848;2022-10-23T06:10:47;21.90;;;17.83;;
19971;SDS011;10147;16.402;102.848;2022-10-23T06:13:18;21.15;;;17.02;;
19971;SDS011;10147;16.402;102.848;2022-10-23T06:15:49;25.42;;;17.50;;
19971;SDS011;10147;16.402;102.848;2022-10-23T06:18:23;19.90;;;16.75;;
19971;SDS011;10147;16.402;102.848;2022-10-23T06:20:59;21.25;;;17.45;;
19971;SDS011;10147;16.402;102.848;2022-10-23T06:23:30;19.65;;;17.60;;
19971;SDS011;10147;16.402;102.848;2022-10-23T06:26:21;19.00;;;16.92;;
19971;SDS011;10147;16.402;102.848;2022-10-23T06:28:57;19.17;;;16.13;;
19971;SDS011;10147;16.402;102.848;2022-10-23T06:31:28;21.33;;;16.40;;
19971;SDS011;10147;16.402;102.848;2022-10-23T06:33:59;22.13;;;16.25;;
19971;SDS011;10147;16.402;102.848;2022-10-23T06:36:30;19.67;;;16.90;;
19971;SDS011;10147;16.402;102.848;2022-10-23T06:39:13;21.00;;;16.98;;
19971;SDS011;10147;16.402;102.848;2022-10-23T06:42:03;19.23;;;17.10;;
19971;SDS011;10147;16.402;102.848;2022-10-23T06:44:53;19.85;;;15.65;;
19971;SDS011;10147;16.402;102.848;2022-10-23T06:47:42;19.98;;;16.98;;
19971;SDS011;10147;16.402;102.848;2022-10-23T06:50:35;18.10;;;16.30;;
19971;SDS011;10147;16.402;102.848;2022-10-23T06:53:10;19.05;;;17.05;;
19971;SDS011;10147;16.402;102.848;2022-10-23T06:55:48;22.52;;;17.08;;
19971;SDS011;10147;16.402;102.848;2022-10-23T06:58:22;22.45;;;17.55;;
19971;SDS011;10147;16.402;102.848;2022-10-23T07:01:01;22.60;;;17.98;;
19971;SDS011;10147;16.402;102.848;2022-10-23T07:03:32;20.20;;;17.55;;
19971;SDS011;10147;16.402;102.848;2022-10-23T07:06:06;20.45;;;17.25;;
19971;SDS011;10147;16.402;102.848;2022-10-23T07:08:37;21.23;;;17.25;;
19971;SDS011;10147;16.402;102.848;2022-10-23T07:11:27;23.90;;;17.65;;
19971;SDS011;10147;16.402;102.848;2022-10-23T07:13:57;20.33;;;17.45;;
19971;SDS011;10147;16.402;102.848;2022-10-23T07:16:28;23.08;;;16.83;;
19971;SDS011;10147;16.402;102.848;2022-10-23T07:18:59;21.25;;;17.58;;
19971;SDS011;10147;16.402;102.848;2022-10-23T07:21:50;18.80;;;16.80;;
19971;SDS011;10147;16.402;102.848;2022-10-23T07:24:40;20.33;;;16.52;;
19971;SDS011;10147;16.402;102.848;2022-10-23T07:27:19;20.13;;;17.92;;
19971;SDS011;10147;16.402;102.848;2022-10-23T07:29:55;22.45;;;18.02;;
19971;SDS011;10147;16.402;102.848;2022-10-23T07:32:29;21.75;;;17.33;;
19971;SDS011;10147;16.402;102.848;2022-10-23T07:35:19;23.42;;;16.73;;
19971;SDS011;10147;16.402;102.848;2022-10-23T07:38:01;19.30;;;17.08;;
19971;SDS011;10147;16.402;102.848;2022-10-23T07:40:35;21.15;;;16.23;;
19971;SDS011;10147;16.402;102.848;2022-10-23T07:43:08;18.73;;;16.73;;
19971;SDS011;10147;16.402;102.848;2022-10-23T07:45:38;23.00;;;16.13;;
19971;SDS011;10147;16.402;102.848;2022-10-23T07:48:17;22.73;;;16.67;;
19971;SDS011;10147;16.402;102.848;2022-10-23T07:50:58;21.77;;;17.60;;
19971;SDS011;10147;16.402;102.848;2022-10-23T07:53:30;20.00;;;17.48;;
19971;SDS011;10147;16.402;102.848;2022-10-23T07:56:15;23.50;;;17.42;;
19971;SDS011;10147;16.402;102.848;2022-10-23T07:59:08;19.90;;;17.77;;
19971;SDS011;10147;16.402;102.848;2022-10-23T08:01:42;21.05;;;18.40;;
19971;SDS011;10147;16.402;102.848;2022-10-23T08:04:19;22.23;;;18.15;;
19971;SDS011;10147;16.402;102.848;2022-10-23T08:06:58;21.70;;;17.75;;
19971;SDS011;10147;16.402;102.848;2022-10-23T08:09:36;21.15;;;18.58;;
19971;SDS011;10147;16.402;102.848;2022-10-23T08:12:07;19.83;;;16.90;;
19971;SDS011;10147;16.402;102.848;2022-10-23T08:14:38;20.60;;;18.40;;
19971;SDS011;10147;16.402;102.848;2022-10-23T08:17:10;21.27;;;18.17;;
19971;SDS011;10147;16.402;102.848;2022-10-23T08:19:58;21.33;;;18.15;;
19971;SDS011;10147;16.402;102.848;2022-10-23T08:22:34;21.55;;;17.50;;
19971;SDS011;10147;16.402;102.848;2022-10-23T08:25:08;20.45;;;17.83;;
19971;SDS011;10147;16.402;102.848;2022-10-23T08:27:38;25.98;;;18.75;;
19971;SDS011;10147;16.402;102.848;2022-10-23T08:30:10;25.48;;;17.10;;
19971;SDS011;10147;16.402;102.848;2022-10-23T08:32:42;21.52;;;19.23;;
19971;SDS011;10147;16.402;102.848;2022-10-23T08:35:13;22.52;;;17.95;;
19971;SDS011;10147;16.402;102.848;2022-10-23T08:37:43;22.15;;;18.73;;
19971;SDS011;10147;16.402;102.848;2022-10-23T08:40:19;24.77;;;18.42;;
19971;SDS011;10147;16.402;102.848;2022-10-23T08:43:16;20.58;;;17.83;;
19971;SDS011;10147;16.402;102.848;2022-10-23T08:46:03;23.75;;;20.05;;
19971;SDS011;10147;16.402;102.848;2022-10-23T08:48:58;21.00;;;17.33;;
19971;SDS011;10147;16.402;102.848;2022-10-23T08:51:44;24.48;;;18.65;;
19971;SDS011;10147;16.402;102.848;2022-10-23T08:54:23;20.90;;;18.08;;
19971;SDS011;10147;16.402;102.848;2022-10-23T08:57:02;18.63;;;16.73;;
19971;SDS011;10147;16.402;102.848;2022-10-23T09:02:36;21.42;;;18.30;;
19971;SDS011;10147;16.402;102.848;2022-10-23T09:05:13;22.17;;;17.27;;
19971;SDS011;10147;16.402;102.848;2022-10-23T09:07:56;20.35;;;18.23;;
19971;SDS011;10147;16.402;102.848;2022-10-23T09:18:58;18.42;;;16.20;;
19971;SDS011;10147;16.402;102.848;2022-10-23T09:21:28;20.83;;;17.30;;
19971;SDS011;10147;16.402;102.848;2022-10-23T09:23:59;21.17;;;18.85;;
19971;SDS011;10147;16.402;102.848;2022-10-23T09:26:30;19.95;;;17.80;;
19971;SDS011;10147;16.402;102.848;2022-10-23T09:29:13;21.92;;;19.17;;
19971;SDS011;10147;16.402;102.848;2022-10-23T09:31:54;22.25;;;18.00;;
19971;SDS011;10147;16.402;102.848;2022-10-23T09:34:28;21.88;;;19.33;;
19971;SDS011;10147;16.402;102.848;2022-10-23T09:37:01;22.48;;;18.38;;
19971;SDS011;10147;16.402;102.848;2022-10-23T09:40:11;21.60;;;17.80;;
19971;SDS011;10147;16.402;102.848;2022-10-23T09:42:49;22.25;;;17.77;;
19971;SDS011;10147;16.402;102.848;2022-10-23T09:45:26;22.13;;;18.58;;
19971;SDS011;10147;16.402;102.848;2022-10-23T09:48:16;20.70;;;18.33;;
19971;SDS011;10147;16.402;102.848;2022-10-23T09:54:09;22.33;;;19.20;;
19971;SDS011;10147;16.402;102.848;2022-10-23T09:56:45;23.30;;;18.23;;
19971;SDS011;10147;16.402;102.848;2022-10-23T09:59:20;24.58;;;19.63;;
19971;SDS011;10147;16.402;102.848;2022-10-23T10:01:59;23.67;;;18.35;;
19971;SDS011;10147;16.402;102.848;2022-10-23T10:04:53;22.20;;;18.88;;
19971;SDS011;10147;16.402;102.848;2022-10-23T10:07:26;25.85;;;21.27;;
19971;SDS011;10147;16.402;102.848;2022-10-23T10:10:06;22.92;;;20.42;;
19971;SDS011;10147;16.402;102.848;2022-10-23T10:12:45;26.58;;;22.17;;
19971;SDS011;10147;16.402;102.848;2022-10-23T10:15:36;27.55;;;22.27;;
19971;SDS011;10147;16.402;102.848;2022-10-23T10:18:20;28.17;;;22.17;;
19971;SDS011;10147;16.402;102.848;2022-10-23T10:23:52;27.70;;;23.88;;
19971;SDS011;10147;16.402;102.848;2022-10-23T10:26:39;37.30;;;27.17;;
19971;SDS011;10147;16.402;102.848;2022-10-23T10:29:42;51.50;;;38.83;;
19971;SDS011;10147;16.402;102.848;2022-10-23T10:38:51;303.38;;;178.88;;
19971;SDS011;10147;16.402;102.848;2022-10-23T10:41:40;240.20;;;138.60;;
19971;SDS011;10147;16.402;102.848;2022-10-23T10:47:38;220.52;;;117.13;;
19971;SDS011;10147;16.402;102.848;2022-10-23T10:56:38;195.27;;;112.60;;
19971;SDS011;10147;16.402;102.848;2022-10-23T10:59:28;174.80;;;109.18;;
19971;SDS011;10147;16.402;102.848;2022-10-23T11:14:22;91.20;;;56.65;;
19971;SDS011;10147;16.402;102.848;2022-10-23T11:29:27;74.20;;;46.30;;
19971;SDS011;10147;16.402;102.848;2022-10-23T11:38:34;80.32;;;47.97;;
19971;SDS011;10147;16.402;102.848;2022-10-23T11:41:18;72.47;;;46.20;;
19971;SDS011;10147;16.402;102.848;2022-10-23T11:43:56;71.60;;;45.88;;
19971;SDS011;10147;16.402;102.848;2022-10-23T11:46:35;70.22;;;45.72;;
19971;SDS011;10147;16.402;102.848;2022-10-23T11:49:18;75.47;;;48.15;;
19971;SDS011;10147;16.402;102.848;2022-10-23T11:51:58;91.63;;;52.75;;
19971;SDS011;10147;16.402;102.848;2022-10-23T11:54:30;91.60;;;52.88;;
19971;SDS011;10147;16.402;102.848;2022-10-23T11:57:11;77.68;;;52.40;;
19971;SDS011;10147;16.402;102.848;2022-10-23T11:59:51;84.72;;;51.28;;
19971;SDS011;10147;16.402;102.848;2022-10-23T12:02:30;63.75;;;42.80;;
19971;SDS011;10147;16.402;102.848;2022-10-23T12:05:06;64.25;;;43.42;;
19971;SDS011;10147;16.402;102.848;2022-10-23T12:07:58;63.40;;;43.90;;
19971;SDS011;10147;16.402;102.848;2022-10-23T12:10:35;71.65;;;46.90;;
19971;SDS011;10147;16.402;102.848;2022-10-23T12:16:32;69.18;;;47.20;;
19971;SDS011;10147;16.402;102.848;2022-10-23T12:19:16;69.20;;;46.47;;
19971;SDS011;10147;16.402;102.848;2022-10-23T12:21:50;66.00;;;46.55;;
19971;SDS011;10147;16.402;102.848;2022-10-23T12:27:32;108.13;;;77.65;;
19971;SDS011;10147;16.402;102.848;2022-10-23T12:30:27;425.10;;;368.55;;
19971;SDS011;10147;16.402;102.848;2022-10-23T12:42:08;76.38;;;53.38;;
19971;SDS011;10147;16.402;102.848;2022-10-23T12:44:59;71.88;;;52.63;;
19971;SDS011;10147;16.402;102.848;2022-10-23T12:47:34;79.78;;;56.95;;
19971;SDS011;10147;16.402;102.848;2022-10-23T12:50:18;73.25;;;52.72;;
19971;SDS011;10147;16.402;102.848;2022-10-23T12:52:57;75.10;;;51.97;;
19971;SDS011;10147;16.402;102.848;2022-10-23T12:58:30;77.88;;;54.75;;
19971;SDS011;10147;16.402;102.848;2022-10-23T13:01:05;74.45;;;58.80;;
19971;SDS011;10147;16.402;102.848;2022-10-23T13:03:37;85.50;;;60.30;;
19971;SDS011;10147;16.402;102.848;2022-10-23T13:06:08;72.60;;;54.10;;
19971;SDS011;10147;16.402;102.848;2022-10-23T13:08:40;79.15;;;57.20;;
19971;SDS011;10147;16.402;102.848;2022-10-23T13:11:34;76.00;;;59.55;;
19971;SDS011;10147;16.402;102.848;2022-10-23T13:14:11;82.80;;;57.30;;
19971;SDS011;10147;16.402;102.848;2022-10-23T13:16:43;69.15;;;52.65;;
19971;SDS011;10147;16.402;102.848;2022-10-23T13:19:23;79.40;;;54.55;;
19971;SDS011;10147;16.402;102.848;2022-10-23T13:21:55;73.25;;;52.95;;
19971;SDS011;10147;16.402;102.848;2022-10-23T13:24:27;73.93;;;54.58;;
19971;SDS011;10147;16.402;102.848;2022-10-23T13:26:59;73.65;;;55.20;;
19971;SDS011;10147;16.402;102.848;2022-10-23T13:29:30;73.82;;;53.30;;
19971;SDS011;10147;16.402;102.848;2022-10-23T13:32:09;81.95;;;55.75;;
19971;SDS011;10147;16.402;102.848;2022-10-23T13:34:49;80.88;;;56.03;;
19971;SDS011;10147;16.402;102.848;2022-10-23T13:37:43;75.47;;;56.83;;
19971;SDS011;10147;16.402;102.848;2022-10-23T13:40:20;90.22;;;61.75;;
19971;SDS011;10147;16.402;102.848;2022-10-23T13:42:56;104.63;;;75.60;;
19971;SDS011;10147;16.402;102.848;2022-10-23T13:45:27;172.93;;;117.78;;
19971;SDS011;10147;16.402;102.848;2022-10-23T13:47:57;99.63;;;68.43;;
19971;SDS011;10147;16.402;102.848;2022-10-23T13:50:27;100.65;;;69.47;;
19971;SDS011;10147;16.402;102.848;2022-10-23T13:52:59;98.90;;;69.65;;
19971;SDS011;10147;16.402;102.848;2022-10-23T13:55:29;99.63;;;66.07;;
19971;SDS011;10147;16.402;102.848;2022-10-23T13:58:01;103.97;;;67.22;;
19971;SDS011;10147;16.402;102.848;2022-10-23T14:00:31;106.13;;;68.70;;
19971;SDS011;10147;16.402;102.848;2022-10-23T14:03:02;101.65;;;69.68;;
19971;SDS011;10147;16.402;102.848;2022-10-23T14:05:33;98.20;;;70.75;;
19971;SDS011;10147;16.402;102.848;2022-10-23T14:08:04;100.78;;;67.97;;
19971;SDS011;10147;16.402;102.848;2022-10-23T14:10:35;95.70;;;64.72;;
19971;SDS011;10147;16.402;102.848;2022-10-23T14:13:05;96.75;;;68.90;;
19971;SDS011;10147;16.402;102.848;2022-10-23T14:15:36;98.38;;;70.15;;
19971;SDS011;10147;16.402;102.848;2022-10-23T14:18:07;102.50;;;67.15;;
19971;SDS011;10147;16.402;102.848;2022-10-23T14:20:38;100.22;;;67.57;;
19971;SDS011;10147;16.402;102.848;2022-10-23T14:23:08;98.70;;;69.22;;
19971;SDS011;10147;16.402;102.848;2022-10-23T14:25:39;103.22;;;71.53;;
19971;SDS011;10147;16.402;102.848;2022-10-23T14:28:09;97.18;;;70.65;;
19971;SDS011;10147;16.402;102.848;2022-10-23T14:30:40;91.80;;;67.60;;
19971;SDS011;10147;16.402;102.848;2022-10-23T14:33:12;85.57;;;64.65;;
19971;SDS011;10147;16.402;102.848;2022-10-23T14:35:48;84.15;;;65.80;;
19971;SDS011;10147;16.402;102.848;2022-10-23T14:38:19;81.57;;;64.47;;
19971;SDS011;10147;16.402;102.848;2022-10-23T14:40:50;88.93;;;66.53;;
19971;SDS011;10147;16.402;102.848;2022-10-23T14:43:22;85.93;;;64.80;;
19971;SDS011;10147;16.402;102.848;2022-10-23T14:45:53;86.90;;;69.28;;
19971;SDS011;10147;16.402;102.848;2022-10-23T14:48:23;78.15;;;64.43;;
19971;SDS011;10147;16.402;102.848;2022-10-23T14:50:57;79.55;;;63.05;;
19971;SDS011;10147;16.402;102.848;2022-10-23T14:53:28;85.45;;;62.35;;
19971;SDS011;10147;16.402;102.848;2022-10-23T14:56:02;75.90;;;59.10;;
19971;SDS011;10147;16.402;102.848;2022-10-23T14:58:33;73.22;;;57.20;;
19971;SDS011;10147;16.402;102.848;2022-10-23T15:01:03;71.70;;;54.63;;
19971;SDS011;10147;16.402;102.848;2022-10-23T15:03:34;70.40;;;52.30;;
19971;SDS011;10147;16.402;102.848;2022-10-23T15:06:05;64.65;;;48.55;;
19971;SDS011;10147;16.402;102.848;2022-10-23T15:08:47;71.22;;;49.65;;
19971;SDS011;10147;16.402;102.848;2022-10-23T15:11:19;70.80;;;50.42;;
19971;SDS011;10147;16.402;102.848;2022-10-23T15:13:50;66.07;;;48.92;;
19971;SDS011;10147;16.402;102.848;2022-10-23T15:16:22;62.10;;;48.60;;
19971;SDS011;10147;16.402;102.848;2022-10-23T15:18:53;62.67;;;48.30;;
19971;SDS011;10147;16.402;102.848;2022-10-23T15:21:24;62.13;;;47.78;;
19971;SDS011;10147;16.402;102.848;2022-10-23T15:23:55;63.97;;;56.97;;
19971;SDS011;10147;16.402;102.848;2022-10-23T15:26:25;66.07;;;50.95;;
19971;SDS011;10147;16.402;102.848;2022-10-23T15:28:58;64.40;;;53.38;;
19971;SDS011;10147;16.402;102.848;2022-10-23T15:31:39;72.97;;;55.50;;
19971;SDS011;10147;16.402;102.848;2022-10-23T15:34:15;72.47;;;56.55;;
19971;SDS011;10147;16.402;102.848;2022-10-23T15:36:48;66.20;;;55.80;;
19971;SDS011;10147;16.402;102.848;2022-10-23T15:39:22;64.60;;;50.85;;
19971;SDS011;10147;16.402;102.848;2022-10-23T15:41:55;70.75;;;53.15;;
19971;SDS011;10147;16.402;102.848;2022-10-23T15:44:27;66.35;;;51.67;;
19971;SDS011;10147;16.402;102.848;2022-10-23T15:46:59;65.90;;;55.45;;
19971;SDS011;10147;16.402;102.848;2022-10-23T15:49:30;72.72;;;54.58;;
19971;SDS011;10147;16.402;102.848;2022-10-23T15:52:01;64.03;;;53.85;;
19971;SDS011;10147;16.402;102.848;2022-10-23T15:54:34;69.13;;;57.35;;
19971;SDS011;10147;16.402;102.848;2022-10-23T15:57:05;75.20;;;59.30;;
19971;SDS011;10147;16.402;102.848;2022-10-23T15:59:35;67.85;;;55.38;;
19971;SDS011;10147;16.402;102.848;2022-10-23T16:02:06;69.38;;;52.40;;
19971;SDS011;10147;16.402;102.848;2022-10-23T16:04:37;62.00;;;49.75;;
19971;SDS011;10147;16.402;102.848;2022-10-23T16:07:08;60.50;;;48.70;;
19971;SDS011;10147;16.402;102.848;2022-10-23T16:09:38;68.30;;;48.60;;
19971;SDS011;10147;16.402;102.848;2022-10-23T16:12:08;57.95;;;47.00;;
19971;SDS011;10147;16.402;102.848;2022-10-23T16:14:38;55.60;;;45.95;;
19971;SDS011;10147;16.402;102.848;2022-10-23T16:17:08;54.55;;;45.40;;
19971;SDS011;10147;16.402;102.848;2022-10-23T16:19:44;57.10;;;44.67;;
19971;SDS011;10147;16.402;102.848;2022-10-23T16:22:14;55.85;;;43.53;;
19971;SDS011;10147;16.402;102.848;2022-10-23T16:24:45;54.10;;;42.22;;
19971;SDS011;10147;16.402;102.848;2022-10-23T16:27:15;50.47;;;41.45;;